Time;durP1;ratioP1;P1;durP2;ratioP2;P2;SDS_P1;SDS_P2;PMS_P1;PMS_P2;Temp;Humidity;BMP_temperature;BMP_pressure;BME280_temperature;BME280_humidity;BME280_pressure;Samples;Min_cycle;Max_cycle;Signal;HPM_P1;HPM_P2
2020/12/09 00:00:10;;;;;;;15.15;8.35;;;;;;;-5.84;69.60;100256.41;1763042;81;21381;-62
2020/12/09 00:02:40;;;;;;;12.40;7.28;;;;;;;-5.87;69.75;100257.55;1762826;80;21072;-62
2020/12/09 00:05:11;;;;;;;16.15;7.80;;;;;;;-5.91;69.88;100260.81;1763018;81;21138;-62
2020/12/09 00:07:38;;;;;;;16.32;8.68;;;;;;;-5.97;70.02;100264.37;1763019;81;21151;-63
2020/12/09 00:10:07;;;;;;;14.10;8.05;;;;;;;-6.00;70.19;100266.41;1763126;81;21488;-63
2020/12/09 00:12:35;;;;;;;12.47;7.42;;;;;;;-6.04;70.30;100264.97;1763016;81;21185;-62
2020/12/09 00:15:09;;;;;;;13.30;8.25;;;;;;;-6.08;70.45;100262.72;1762963;81;21069;-63
2020/12/09 00:17:38;;;;;;;12.18;7.50;;;;;;;-6.14;70.54;100261.62;1763015;81;21178;-63
2020/12/09 00:20:05;;;;;;;15.20;7.65;;;;;;;-6.20;70.83;100263.54;1763018;80;21052;-62
2020/12/09 00:22:36;;;;;;;13.88;7.78;;;;;;;-6.23;71.04;100263.82;1763094;81;21496;-63
2020/12/09 00:25:04;;;;;;;14.50;8.30;;;;;;;-6.24;71.17;100254.50;1763065;81;21433;-62
2020/12/09 00:27:35;;;;;;;14.33;7.78;;;;;;;-6.25;71.27;100258.70;1763043;81;21135;-62
2020/12/09 00:30:08;;;;;;;13.80;8.23;;;;;;;-6.27;71.37;100256.10;1763081;81;21477;-62
2020/12/09 00:32:35;;;;;;;;;;;;;;;-6.28;71.35;100258.17;1765625;81;21179;-63
2020/12/09 00:35:06;;;;;;;17.57;7.62;;;;;;;-6.30;71.44;100255.98;1731172;83;20667;-63
2020/12/09 00:37:37;;;;;;;14.58;8.30;;;;;;;-6.31;71.52;100256.78;1754632;80;21371;-63
2020/12/09 00:40:05;;;;;;;15.60;7.47;;;;;;;-6.31;71.50;100260.58;1754583;81;21054;-63
2020/12/09 00:42:34;;;;;;;13.55;6.95;;;;;;;-6.31;71.54;100254.25;1754711;81;21050;-64
2020/12/09 00:45:02;;;;;;;12.60;7.22;;;;;;;-6.29;71.59;100255.58;1754637;81;21182;-63
2020/12/09 00:47:29;;;;;;;15.88;7.67;;;;;;;-6.29;71.58;100255.18;1754654;81;21106;-62
2020/12/09 00:52:42;;;;;;;11.35;7.17;;;;;;;-6.29;71.58;100258.11;1754529;81;21169;-63
2020/12/09 00:55:12;;;;;;;14.98;7.97;;;;;;;-6.31;71.66;100253.39;1749903;81;21532;-64
2020/12/09 00:57:41;;;;;;;17.45;8.18;;;;;;;-6.33;71.61;100250.80;1748986;80;21095;-63
2020/12/09 01:00:10;;;;;;;17.35;7.65;;;;;;;-6.35;71.67;100256.20;1749049;80;21107;-63
2020/12/09 01:02:39;;;;;;;17.73;8.40;;;;;;;-6.35;71.71;100248.61;1749032;82;21335;-63
2020/12/09 01:05:09;;;;;;;12.80;7.20;;;;;;;-6.36;71.68;100250.67;1749009;80;21503;-63
2020/12/09 01:07:37;;;;;;;14.47;7.37;;;;;;;-6.36;71.82;100249.81;1749009;82;21090;-63
2020/12/09 01:10:09;;;;;;;20.15;8.98;;;;;;;-6.38;71.83;100243.83;1749102;82;21078;-63
2020/12/09 01:12:40;;;;;;;19.62;9.35;;;;;;;-6.37;71.86;100255.67;1749021;81;21087;-63
2020/12/09 01:15:10;;;;;;;16.17;9.08;;;;;;;-6.40;71.93;100255.59;1749014;82;22138;-63
2020/12/09 01:17:37;;;;;;;14.15;7.67;;;;;;;-6.37;71.95;100248.09;1748983;82;21071;-63
2020/12/09 01:20:05;;;;;;;12.28;7.75;;;;;;;-6.37;71.88;100265.80;1748996;82;21058;-63
2020/12/09 01:22:36;;;;;;;13.62;8.25;;;;;;;-6.42;71.91;100255.53;1749020;80;21066;-63
2020/12/09 01:25:05;;;;;;;14.78;7.55;;;;;;;-6.47;72.01;100255.74;1749057;82;21055;-64
2020/12/09 01:27:32;;;;;;;14.40;7.05;;;;;;;-6.50;72.09;100252.22;1748998;81;21353;-63
2020/12/09 01:30:00;;;;;;;16.50;7.78;;;;;;;-6.54;72.13;100251.23;1748910;81;22063;-62
2020/12/09 01:32:27;;;;;;;11.53;6.60;;;;;;;-6.57;72.28;100256.57;1748970;82;21075;-62
2020/12/09 01:34:54;;;;;;;13.30;7.28;;;;;;;-6.59;72.29;100254.41;1748967;82;21082;-62
2020/12/09 01:37:23;;;;;;;13.13;7.80;;;;;;;-6.63;72.40;100250.89;1748995;81;21075;-64
2020/12/09 01:39:50;;;;;;;14.80;8.35;;;;;;;-6.66;72.61;100247.84;1749067;81;21339;-63
2020/12/09 01:42:18;;;;;;;14.95;7.65;;;;;;;-6.66;72.67;100244.04;1748913;82;21981;-62
2020/12/09 01:44:46;;;;;;;12.33;7.95;;;;;;;-6.70;72.71;100248.52;1748996;82;21042;-63
2020/12/09 01:47:13;;;;;;;13.48;7.65;;;;;;;-6.75;72.91;100256.71;1748975;82;21067;-62
2020/12/09 01:49:40;;;;;;;14.07;8.03;;;;;;;-6.82;73.13;100255.62;1749005;82;21134;-61
2020/12/09 01:52:08;;;;;;;15.00;8.40;;;;;;;-6.84;73.42;100266.08;1719955;82;21458;-64
2020/12/09 01:54:36;;;;;;;16.17;8.60;;;;;;;-6.83;73.82;100258.95;1748819;81;21067;-64
2020/12/09 01:57:11;;;;;;;16.40;8.73;;;;;;;-6.77;73.98;100253.25;1748985;82;21079;-64
2020/12/09 01:59:40;;;;;;;15.58;8.58;;;;;;;-6.73;74.10;100253.84;1748938;82;21142;-64
2020/12/09 02:02:08;;;;;;;18.10;8.83;;;;;;;-6.72;74.18;100257.70;1749005;82;21182;-63
2020/12/09 02:04:36;;;;;;;15.50;9.38;;;;;;;-6.69;74.11;100261.63;1748995;82;21503;-63
2020/12/09 02:07:03;;;;;;;16.17;9.10;;;;;;;-6.71;74.12;100260.70;1748915;82;21067;-63
2020/12/09 02:09:31;;;;;;;16.30;9.53;;;;;;;-6.74;74.14;100259.70;1748984;82;21118;-62
2020/12/09 02:12:00;;;;;;;16.42;9.48;;;;;;;-6.80;74.33;100260.34;1748987;82;21182;-62
2020/12/09 02:14:28;;;;;;;15.65;8.50;;;;;;;-6.79;74.59;100262.05;1748958;82;21071;-63
2020/12/09 02:16:57;;;;;;;21.70;9.93;;;;;;;-6.78;74.48;100260.38;1748945;81;23529;-63
2020/12/09 02:19:26;;;;;;;17.15;9.80;;;;;;;-6.81;74.55;100262.81;1749012;82;21503;-63
2020/12/09 02:21:53;;;;;;;18.50;9.35;;;;;;;-6.82;74.71;100256.89;1748967;82;21067;-63
2020/12/09 02:24:21;;;;;;;16.90;7.97;;;;;;;-6.79;74.66;100254.86;1748933;80;21122;-63
2020/12/09 02:26:50;;;;;;;13.62;8.03;;;;;;;-6.83;74.56;100255.16;1748982;82;21555;-63
2020/12/09 02:29:19;;;;;;;16.73;9.83;;;;;;;-6.88;74.66;100253.24;1748683;82;22477;-63
2020/12/09 02:31:47;;;;;;;13.85;7.62;;;;;;;-6.93;74.69;100252.18;1748890;82;21106;-63
2020/12/09 02:34:16;;;;;;;15.65;7.97;;;;;;;-6.92;74.75;100248.86;1749032;82;21083;-62
2020/12/09 02:36:45;;;;;;;14.95;7.33;;;;;;;-6.92;74.93;100252.25;1748925;81;21054;-63
2020/12/09 02:39:12;;;;;;;16.55;7.83;;;;;;;-6.87;74.90;100254.56;1748922;80;21114;-63
2020/12/09 02:41:40;;;;;;;13.88;7.90;;;;;;;-6.83;74.78;100257.69;1748928;80;21421;-63
2020/12/09 02:44:08;;;;;;;16.25;8.15;;;;;;;-6.80;74.62;100255.29;1748866;82;21182;-62
2020/12/09 02:46:35;;;;;;;12.95;8.10;;;;;;;-6.80;74.50;100255.29;1748918;82;21062;-62
2020/12/09 02:49:03;;;;;;;17.90;7.50;;;;;;;-6.81;74.59;100259.02;1748947;81;21558;-62
2020/12/09 02:51:30;;;;;;;15.40;7.87;;;;;;;-6.81;74.56;100261.15;1748895;82;21644;-62
2020/12/09 02:53:58;;;;;;;12.50;7.15;;;;;;;-6.81;74.53;100262.41;1748759;81;23531;-63
2020/12/09 02:56:25;;;;;;;12.65;7.55;;;;;;;-6.81;74.54;100261.55;1749006;82;21492;-64
2020/12/09 02:58:53;;;;;;;14.60;7.42;;;;;;;-6.81;74.52;100257.35;1748931;82;21051;-64
2020/12/09 03:01:20;;;;;;;13.13;6.97;;;;;;;-6.83;74.58;100255.16;1748994;82;21146;-63
2020/12/09 03:03:48;;;;;;;13.55;7.67;;;;;;;-6.85;74.63;100260.55;1748983;81;21506;-63
2020/12/09 03:06:16;;;;;;;15.48;8.38;;;;;;;-6.83;74.64;100260.62;1748968;81;21205;-63
2020/12/09 03:08:43;;;;;;;15.98;7.45;;;;;;;-6.83;74.68;100260.62;1748836;81;21562;-64
2020/12/09 03:11:11;;;;;;;13.83;7.62;;;;;;;-6.84;74.66;100263.95;1748893;82;21122;-62
2020/12/09 03:13:38;;;;;;;15.20;7.47;;;;;;;-6.85;74.68;100260.55;1748993;82;21609;-62
2020/12/09 03:16:06;;;;;;;12.40;7.35;;;;;;;-6.86;74.71;100263.02;1748931;80;21047;-62
2020/12/09 03:18:33;;;;;;;16.80;7.87;;;;;;;-6.85;74.76;100264.75;1748877;82;21426;-63
2020/12/09 03:21:06;;;;;;;17.12;8.40;;;;;;;-6.85;74.73;100263.48;1748803;82;21154;-62
2020/12/09 03:23:31;;;;;;;13.25;7.67;;;;;;;-6.85;74.78;100265.61;1748864;81;21071;-63
2020/12/09 03:25:58;;;;;;;17.60;8.98;;;;;;;-6.83;74.77;100269.08;1748943;80;21610;-63
2020/12/09 03:28:26;;;;;;;15.83;8.30;;;;;;;-6.82;74.78;100272.06;1748927;82;21062;-63
2020/12/09 03:30:53;;;;;;;17.98;9.33;;;;;;;-6.79;74.76;100260.78;1748977;82;21424;-63
2020/12/09 03:33:21;;;;;;;21.35;9.43;;;;;;;-6.77;74.63;100267.16;1748914;82;21134;-63
2020/12/09 03:35:49;;;;;;;14.43;8.33;;;;;;;-6.77;74.67;100267.16;1748909;80;21566;-63
2020/12/09 03:38:17;;;;;;;14.40;8.33;;;;;;;-6.79;74.60;100266.23;1748863;82;21083;-63
2020/12/09 03:40:45;;;;;;;16.52;7.70;;;;;;;-6.78;74.68;100266.70;1748914;80;21075;-63
2020/12/09 03:43:12;;;;;;;18.23;8.58;;;;;;;-6.77;74.70;100259.58;1748959;82;21218;-63
2020/12/09 03:45:41;;;;;;;16.67;8.05;;;;;;;-6.75;74.66;100265.56;1748849;82;21131;-62
2020/12/09 03:48:09;;;;;;;17.10;8.98;;;;;;;-6.73;74.69;100257.23;1748510;82;33419;-62
2020/12/09 03:50:37;;;;;;;17.55;8.48;;;;;;;-6.70;74.63;100262.42;1748904;82;21067;-62
2020/12/09 03:53:05;;;;;;;14.80;7.08;;;;;;;-6.68;74.60;100261.22;1748959;82;21070;-62
2020/12/09 03:55:33;;;;;;;14.93;6.90;;;;;;;-6.68;74.53;100259.95;1757783;81;21409;-62
2020/12/09 03:58:01;;;;;;;16.77;7.50;;;;;;;-6.68;74.47;100254.90;1765766;81;21123;-62
2020/12/09 04:00:28;;;;;;;18.30;7.75;;;;;;;-6.69;74.52;100259.49;1765814;81;21580;-63
2020/12/09 04:02:56;;;;;;;18.05;7.47;;;;;;;-6.68;74.48;100254.50;1765910;80;21603;-63
2020/12/09 04:05:24;;;;;;;24.23;8.50;;;;;;;-6.66;74.49;100259.22;1765825;81;21569;-63
2020/12/09 04:07:51;;;;;;;17.55;7.30;;;;;;;-6.66;74.45;100259.22;1765834;80;21850;-62
2020/12/09 04:10:19;;;;;;;15.20;7.37;;;;;;;-6.68;74.51;100263.35;1765728;81;21898;-63
2020/12/09 04:12:46;;;;;;;14.10;7.30;;;;;;;-6.67;74.49;100261.69;1765781;81;21532;-62
2020/12/09 04:15:14;;;;;;;15.90;7.22;;;;;;;-6.66;74.47;100259.62;1765756;80;21989;-63
2020/12/09 04:17:41;;;;;;;13.90;6.55;;;;;;;-6.66;74.45;100257.09;1765844;81;21071;-62
2020/12/09 04:20:09;;;;;;;15.50;7.10;;;;;;;-6.67;74.39;100251.56;1765808;81;21420;-64
2020/12/09 04:22:36;;;;;;;15.05;6.90;;;;;;;-6.68;74.39;100258.30;1765760;80;21092;-64
2020/12/09 04:25:03;;;;;;;19.02;8.05;;;;;;;-6.72;74.40;100258.10;1765811;81;21040;-63
2020/12/09 04:27:31;;;;;;;15.13;7.55;;;;;;;-6.73;74.53;100261.03;1765767;81;21923;-62
2020/12/09 04:29:58;;;;;;;16.75;8.15;;;;;;;-6.71;74.57;100261.09;1765786;81;21454;-63
2020/12/09 04:32:26;;;;;;;15.05;7.53;;;;;;;-6.69;74.56;100257.83;1765769;80;21504;-63
2020/12/09 04:34:58;;;;;;;13.93;6.92;;;;;;;-6.67;74.41;100260.42;1765748;81;21075;-63
2020/12/09 04:37:27;;;;;;;15.55;7.10;;;;;;;-6.68;74.47;100254.50;1765942;81;21071;-64
2020/12/09 04:39:55;;;;;;;13.08;7.37;;;;;;;-6.67;74.50;100254.96;1765911;81;21080;-64
2020/12/09 04:42:23;;;;;;;17.17;8.10;;;;;;;-6.65;74.44;100259.69;1765794;81;21111;-64
2020/12/09 04:44:52;;;;;;;15.65;7.15;;;;;;;-6.66;74.47;100254.56;1765886;80;21544;-64
2020/12/09 04:47:29;;;;;;;15.55;7.15;;;;;;;-6.66;74.46;100257.09;1765761;80;21595;-64
2020/12/09 04:50:09;;;;;;;16.67;7.53;;;;;;;-6.65;74.42;100256.29;1765981;80;21468;-62
2020/12/09 04:52:48;;;;;;;14.80;7.40;;;;;;;-6.66;74.42;100252.03;1765671;80;21496;-63
2020/12/09 04:55:17;;;;;;;18.55;7.90;;;;;;;-6.66;74.49;100262.16;1761564;80;21055;-62
2020/12/09 04:58:02;;;;;;;19.27;8.33;;;;;;;-6.62;74.63;100261.08;1762989;80;21489;-63
2020/12/09 05:00:27;;;;;;;12.75;6.87;;;;;;;-6.55;74.53;100258.36;1762987;81;21071;-62
2020/12/09 05:02:56;;;;;;;15.58;7.45;;;;;;;-6.49;74.47;100256.08;1745972;81;21055;-63
2020/12/09 05:05:24;;;;;;;18.70;7.12;;;;;;;-6.41;74.43;100255.98;1745846;81;21127;-63
2020/12/09 05:07:53;;;;;;;15.50;7.05;;;;;;;-6.34;74.30;100246.94;1762989;81;21115;-64
2020/12/09 05:10:23;;;;;;;15.88;7.40;;;;;;;-6.23;74.17;100251.16;1762984;80;21354;-62
2020/12/09 05:12:53;;;;;;;13.15;6.78;;;;;;;-6.14;74.04;100254.02;1762962;80;21547;-63
2020/12/09 05:15:22;;;;;;;11.53;6.47;;;;;;;-6.04;73.72;100258.23;1762959;80;21567;-63
2020/12/09 05:18:06;;;;;;;11.80;6.37;;;;;;;-5.98;73.44;100252.11;1762930;80;21151;-63
2020/12/09 05:20:37;;;;;;;15.35;7.15;;;;;;;-5.91;73.36;100254.07;1762994;80;21043;-64
2020/12/09 05:23:08;;;;;;;19.55;8.13;;;;;;;-5.85;73.10;100257.20;1762765;81;23461;-64
2020/12/09 05:25:37;;;;;;;15.40;6.87;;;;;;;-5.79;73.10;100254.88;1762935;80;21060;-64
2020/12/09 05:28:06;;;;;;;14.03;7.35;;;;;;;-5.70;72.90;100259.02;1762910;81;21052;-65
2020/12/09 05:30:47;;;;;;;54.55;37.60;;;;;;;-5.66;72.41;100258.73;1763028;81;21123;-64
2020/12/09 05:33:21;;;;;;;12.50;6.78;;;;;;;-5.69;72.60;100250.61;1763199;81;21476;-63
2020/12/09 05:36:00;;;;;;;12.95;6.80;;;;;;;-5.65;72.52;100252.86;1763143;81;21507;-64
2020/12/09 05:38:28;;;;;;;15.10;6.70;;;;;;;-5.66;72.24;100255.80;1762891;80;21075;-64
2020/12/09 05:40:56;;;;;;;13.10;6.70;;;;;;;-5.68;72.36;100254.02;1762937;81;21131;-64
2020/12/09 05:43:24;;;;;;;17.02;7.15;;;;;;;-5.70;72.22;100250.16;1762951;80;21044;-63
2020/12/09 05:45:52;;;;;;;10.23;5.83;;;;;;;-5.72;72.37;100259.36;1762928;81;21123;-63
2020/12/09 05:48:28;;;;;;;11.73;6.22;;;;;;;-5.75;72.33;100260.92;1762946;81;22739;-63
2020/12/09 05:50:59;;;;;;;54.38;24.02;;;;;;;-5.79;72.36;100267.95;1762939;80;21975;-63
2020/12/09 05:53:29;;;;;;;13.83;6.80;;;;;;;-5.85;72.46;100276.20;1762891;80;21072;-63
2020/12/09 05:56:14;;;;;;;13.75;6.58;;;;;;;-5.86;72.64;100282.48;1764137;80;21098;-63
2020/12/09 05:58:43;;;;;;;23.98;9.43;;;;;;;-5.89;72.73;100274.39;1767659;80;21126;-62
2020/12/09 06:01:23;;;;;;;13.22;6.30;;;;;;;-5.91;72.97;100276.88;1767450;80;21559;-64
2020/12/09 06:03:55;;;;;;;14.13;7.78;;;;;;;-5.84;73.18;100279.60;1767462;80;21535;-66
2020/12/09 06:06:30;;;;;;;12.98;7.12;;;;;;;-5.74;73.15;100276.58;1766856;81;21130;-63
2020/12/09 06:08:59;;;;;;;15.60;7.47;;;;;;;-5.66;72.96;100282.41;1766458;81;21162;-65
2020/12/09 06:11:33;;;;;;;16.27;8.45;;;;;;;-5.57;72.86;100285.25;1767541;80;21059;-63
2020/12/09 06:14:00;;;;;;;26.17;12.37;;;;;;;-5.48;72.86;100289.80;1767546;79;21371;-63
2020/12/09 06:16:29;;;;;;;21.68;11.48;;;;;;;-5.40;72.76;100290.95;1765968;80;21154;-62
2020/12/09 06:18:57;;;;;;;22.17;10.82;;;;;;;-5.31;72.68;100290.38;1766527;80;21075;-64
2020/12/09 06:21:25;;;;;;;17.90;10.03;;;;;;;-5.25;72.54;100284.27;1767454;81;21079;-61
2020/12/09 06:23:54;;;;;;;12.07;6.30;;;;;;;-5.18;72.49;100292.92;1752270;81;21162;-62
2020/12/09 06:26:23;;;;;;;19.80;8.55;;;;;;;-5.12;72.32;100290.20;1767470;80;23515;-63
2020/12/09 06:28:50;;;;;;;33.40;14.05;;;;;;;-5.06;72.29;100290.42;1765985;80;21209;-62
2020/12/09 06:31:22;;;;;;;26.45;12.05;;;;;;;-4.98;72.42;100286.45;1764755;80;21155;-65
2020/12/09 06:33:52;;;;;;;17.27;9.88;;;;;;;-4.89;72.39;100286.77;1764437;79;21203;-65
2020/12/09 06:36:30;;;;;;;27.07;11.43;;;;;;;-4.83;72.44;100288.66;1764295;81;21178;-65
2020/12/09 06:39:16;;;;;;;21.82;8.43;;;;;;;-4.74;72.37;100291.88;1765832;79;21411;-66
2020/12/09 06:41:59;;;;;;;12.85;7.05;;;;;;;-4.63;72.18;100290.17;1765190;80;21165;-65
2020/12/09 06:44:30;;;;;;;;;;;;;;;-4.57;72.00;100291.61;1768752;80;21111;-64
2020/12/09 06:46:58;;;;;;;15.63;9.40;;;;;;;-4.56;72.13;100289.53;1766451;81;20297;-62
2020/12/09 06:49:38;;;;;;;29.12;13.18;;;;;;;-4.53;72.23;100284.56;1767191;79;21135;-65
2020/12/09 06:52:14;;;;;;;18.12;10.10;;;;;;;-4.49;72.41;100283.39;1762351;81;22238;-65
2020/12/09 06:54:49;;;;;;;15.88;7.40;;;;;;;-4.46;72.34;100288.16;1764685;81;21214;-63
2020/12/09 06:57:33;;;;;;;30.55;9.95;;;;;;;-4.41;72.30;100283.23;1765558;79;21513;-68
2020/12/09 07:00:18;;;;;;;18.50;9.20;;;;;;;-4.34;72.28;100277.52;1763584;80;21198;-65
2020/12/09 07:02:48;;;;;;;18.23;10.55;;;;;;;-4.27;72.24;100277.77;1736322;81;21201;-67
2020/12/09 07:05:19;;;;;;;23.00;11.85;;;;;;;-4.21;72.25;100284.31;1735519;81;22731;-63
2020/12/09 07:07:50;;;;;;;24.37;10.78;;;;;;;-4.18;72.24;100286.91;1736340;81;21565;-64
2020/12/09 07:10:25;;;;;;;17.45;9.55;;;;;;;-4.12;72.19;100277.77;1764209;80;21167;-61
2020/12/09 07:13:07;;;;;;;20.02;10.55;;;;;;;-4.11;72.19;100279.48;1765851;81;21201;-61
2020/12/09 07:15:37;;;;;;;25.10;11.03;;;;;;;-4.10;72.16;100282.08;1766804;80;21548;-65
2020/12/09 07:18:05;;;;;;;19.60;10.70;;;;;;;-4.07;72.16;100280.04;1766808;81;21305;-64
2020/12/09 07:20:34;;;;;;;25.90;11.43;;;;;;;-4.05;72.24;100277.14;1766792;81;21181;-64
2020/12/09 07:23:03;;;;;;;16.75;10.18;;;;;;;-4.05;72.26;100283.48;1766211;80;21211;-63
2020/12/09 07:25:33;;;;;;;18.98;10.38;;;;;;;-4.03;72.31;100281.86;1766743;80;21146;-61
2020/12/09 07:28:00;;;;;;;17.75;9.63;;;;;;;-3.97;72.42;100287.10;1766763;80;21179;-63
2020/12/09 07:30:29;;;;;;;27.62;12.70;;;;;;;-3.91;72.20;100279.27;1766662;79;22824;-62
2020/12/09 07:32:57;;;;;;;24.82;11.22;;;;;;;-3.84;72.33;100275.23;1766707;81;21079;-65
2020/12/09 07:35:29;;;;;;;23.75;12.28;;;;;;;-3.79;71.92;100272.80;1766174;81;21142;-62
2020/12/09 07:37:59;;;;;;;19.15;10.18;;;;;;;-3.86;72.01;100280.27;1766563;79;22283;-64
2020/12/09 07:40:33;;;;;;;19.20;10.58;;;;;;;-3.87;72.05;100275.14;1765985;81;21202;-63
2020/12/09 07:43:13;;;;;;;25.25;11.50;;;;;;;-3.89;72.06;100289.06;1766973;79;21377;-64
2020/12/09 07:45:44;;;;;;;21.68;11.30;;;;;;;-3.87;72.21;100289.98;1735973;81;21248;-62
2020/12/09 07:48:16;;;;;;;22.82;11.35;;;;;;;-3.82;72.22;100296.06;1735341;82;21194;-66
2020/12/09 07:50:49;;;;;;;26.80;12.18;;;;;;;-3.70;72.38;100302.30;1709176;82;21165;-65
2020/12/09 07:53:17;;;;;;;;;;;;;;;-3.59;72.00;100307.27;1738393;82;21137;-64
2020/12/09 07:55:45;;;;;;;28.45;13.40;;;;;;;-3.54;71.98;100309.13;1735424;81;22171;-64
2020/12/09 07:58:14;;;;;;;22.42;12.25;;;;;;;-3.50;71.98;100305.00;1727577;81;21193;-62
2020/12/09 08:00:49;;;;;;;28.75;11.40;;;;;;;-3.44;71.64;100320.44;1754557;81;21751;-63
2020/12/09 08:03:23;;;;;;;29.82;13.83;;;;;;;-3.44;71.54;100311.55;1756481;80;21173;-64
2020/12/09 08:05:53;;;;;;;30.10;13.58;;;;;;;-3.44;71.67;100307.73;1756520;81;21200;-64
2020/12/09 08:08:21;;;;;;;24.40;11.55;;;;;;;-3.39;71.53;100314.19;1757956;81;21384;-63
2020/12/09 08:10:51;;;;;;;21.12;12.13;;;;;;;-3.39;71.73;100303.61;1757860;80;21622;-62
2020/12/09 08:13:22;;;;;;;24.70;12.47;;;;;;;-3.31;71.65;100305.97;1759343;80;21142;-62
2020/12/09 08:18:46;;;;;;;24.37;12.82;;;;;;;-3.28;70.79;100302.64;1887886;75;22694;-62
2020/12/09 08:21:14;;;;;;;17.92;12.47;;;;;;;-3.37;70.82;100310.01;1775337;80;21147;-63
2020/12/09 08:23:48;;;;;;;17.67;10.85;;;;;;;-3.45;70.89;100306.00;1721987;81;22018;-59
2020/12/09 08:26:33;;;;;;;30.48;14.47;;;;;;;-3.48;71.12;100293.20;1775024;80;20953;-63
2020/12/09 08:29:02;;;;;;;25.32;13.05;;;;;;;-3.50;71.12;100293.56;1754304;81;21207;-62
2020/12/09 08:31:30;;;;;;;20.20;11.35;;;;;;;-3.53;71.49;100290.92;1768532;80;21587;-61
2020/12/09 08:33:58;;;;;;;24.60;12.00;;;;;;;-3.49;71.61;100293.61;1816489;78;21083;-62
2020/12/09 08:36:26;;;;;;;22.95;12.30;;;;;;;-3.43;71.50;100288.25;1816446;79;22044;-61
2020/12/09 08:39:00;;;;;;;20.68;10.32;;;;;;;-3.41;71.56;100290.02;1827496;77;20998;-64
2020/12/09 08:41:31;;;;;;;30.27;10.93;;;;;;;-3.35;71.40;100294.38;1849187;77;21655;-65
2020/12/09 08:44:03;;;;;;;18.95;9.90;;;;;;;-3.36;71.19;100290.98;1848013;77;21150;-63
2020/12/09 08:46:30;;;;;;;22.30;11.03;;;;;;;-3.32;71.12;100297.87;1848218;77;21154;-66
2020/12/09 08:48:58;;;;;;;22.87;11.35;;;;;;;-3.29;71.15;100289.47;1848096;77;21575;-65
2020/12/09 08:51:32;;;;;;;25.82;12.30;;;;;;;-3.24;70.97;100288.78;1848112;77;21178;-64
2020/12/09 08:54:05;;;;;;;18.42;9.85;;;;;;;-3.16;71.10;100291.10;1819363;77;21147;-61
2020/12/09 08:56:33;;;;;;;19.35;10.60;;;;;;;-3.05;70.61;100295.63;1848247;77;21158;-65
2020/12/09 08:59:02;;;;;;;17.55;9.80;;;;;;;-3.05;70.39;100291.41;1849026;77;21496;-63
2020/12/09 09:01:35;;;;;;;20.45;11.40;;;;;;;-3.06;70.14;100288.41;1848979;77;21548;-61
2020/12/09 09:04:07;;;;;;;25.32;11.85;;;;;;;-3.10;70.34;100287.87;1833411;77;21095;-61
2020/12/09 09:06:36;;;;;;;25.65;12.20;;;;;;;-3.08;70.47;100286.23;1821399;77;21040;-60
2020/12/09 09:09:06;;;;;;;16.52;10.60;;;;;;;-3.00;70.26;100282.21;1849701;77;21622;-61
2020/12/09 09:11:34;;;;;;;28.73;12.37;;;;;;;-2.98;70.26;100283.08;1844898;77;21143;-59
2020/12/09 09:14:02;;;;;;;20.60;10.10;;;;;;;-2.90;70.22;100279.06;1819321;77;21188;-61
2020/12/09 09:16:31;;;;;;;20.85;11.03;;;;;;;-2.85;69.72;100275.37;1819364;77;21176;-61
2020/12/09 09:18:59;;;;;;;30.32;11.88;;;;;;;-2.89;69.68;100282.06;1815717;78;21160;-59
2020/12/09 09:21:34;;;;;;;19.05;10.93;;;;;;;-2.91;69.81;100284.97;1816355;77;21482;-60
2020/12/09 09:24:02;;;;;;;18.27;10.98;;;;;;;-2.89;69.75;100282.06;1845202;77;21158;-59
2020/12/09 09:26:36;;;;;;;24.65;13.25;;;;;;;-2.91;69.74;100282.43;1841867;77;21444;-59
2020/12/09 09:29:03;;;;;;;18.15;9.85;;;;;;;-2.90;69.94;100274.38;1819922;77;21476;-59
2020/12/09 09:31:37;;;;;;;26.15;13.03;;;;;;;-2.93;69.74;100280.25;1821218;78;21012;-61
2020/12/09 09:34:07;;;;;;;20.60;11.12;;;;;;;-2.94;69.91;100283.62;1830055;77;21179;-58
2020/12/09 09:36:35;;;;;;;18.87;11.80;;;;;;;-2.91;69.82;100274.80;1847345;77;21159;-61
2020/12/09 09:39:04;;;;;;;20.68;10.18;;;;;;;-2.89;69.78;100282.47;1848870;77;21356;-65
2020/12/09 09:41:31;;;;;;;21.52;12.18;;;;;;;-2.88;69.82;100280.38;1838157;77;21607;-70
2020/12/09 09:44:02;;;;;;;23.27;11.95;;;;;;;-2.87;69.66;100275.73;1818778;77;21733;-64
2020/12/09 09:46:30;;;;;;;19.90;12.13;;;;;;;-2.88;69.64;100285.47;1848839;77;21131;-65
2020/12/09 09:48:59;;;;;;;25.23;12.13;;;;;;;-2.88;69.66;100282.92;1818934;77;21583;-63
2020/12/09 09:51:29;;;;;;;20.57;11.78;;;;;;;-2.91;69.87;100278.61;1841120;77;21610;-67
2020/12/09 09:53:56;;;;;;;31.68;14.53;;;;;;;-2.90;69.81;100275.25;1847608;77;21056;-66
2020/12/09 09:56:24;;;;;;;38.30;17.98;;;;;;;-2.96;69.85;100275.48;1777158;79;21115;-64
2020/12/09 09:58:52;;;;;;;24.95;12.53;;;;;;;-2.97;70.20;100279.72;1806392;79;21497;-66
2020/12/09 10:01:21;;;;;;;31.37;13.98;;;;;;;-2.90;70.16;100270.56;1805059;79;21186;-64
2020/12/09 10:07:25;;;;;;;19.27;12.25;;;;;;;-2.85;70.21;100266.05;1844981;77;21111;-63
2020/12/09 10:09:54;;;;;;;20.92;11.63;;;;;;;-2.78;70.38;100264.08;1844971;77;21071;-66
2020/12/09 10:12:21;;;;;;;18.57;12.47;;;;;;;-2.63;70.16;100266.58;1832155;77;21103;-64
2020/12/09 10:14:49;;;;;;;20.48;10.75;;;;;;;-2.55;69.80;100268.46;1835195;77;21135;-63
2020/12/09 10:17:17;;;;;;;19.52;11.22;;;;;;;-2.47;69.54;100266.97;1849256;77;21621;-63
2020/12/09 10:19:45;;;;;;;21.12;11.97;;;;;;;-2.39;69.20;100277.31;1852287;77;21076;-66
2020/12/09 10:22:13;;;;;;;28.27;17.55;;;;;;;-2.35;68.99;100272.75;1852128;77;21204;-64
2020/12/09 10:24:43;;;;;;;26.65;15.93;;;;;;;-2.33;68.74;100271.51;1849968;77;21150;-68
2020/12/09 10:27:11;;;;;;;30.30;15.25;;;;;;;-2.36;69.01;100264.66;1849629;77;21163;-65
2020/12/09 10:29:39;;;;;;;18.37;11.57;;;;;;;-2.28;68.92;100264.43;1851828;77;21213;-64
2020/12/09 10:32:07;;;;;;;21.55;11.03;;;;;;;-2.19;68.89;100265.03;1852220;77;21076;-66
2020/12/09 10:34:38;;;;;;;20.50;11.35;;;;;;;-2.07;68.36;100256.81;1823770;77;21166;-65
2020/12/09 10:37:04;;;;;;;27.52;11.68;;;;;;;-2.06;68.21;100253.44;1845713;77;21179;-66
2020/12/09 10:39:32;;;;;;;19.57;12.25;;;;;;;-2.06;68.23;100253.02;1817430;77;21167;-64
2020/12/09 10:42:00;;;;;;;26.23;15.45;;;;;;;-2.04;68.11;100251.38;1817843;78;22214;-66
2020/12/09 10:44:27;;;;;;;25.82;14.55;;;;;;;-2.00;67.97;100249.75;1819019;78;21172;-65
2020/12/09 10:46:56;;;;;;;16.27;11.03;;;;;;;-1.96;67.87;100252.38;1820534;78;21107;-65
2020/12/09 10:49:23;;;;;;;21.17;11.78;;;;;;;-1.98;67.75;100247.66;1820487;78;21152;-65
2020/12/09 10:51:54;;;;;;;21.27;10.43;;;;;;;-1.98;67.53;100246.80;1826024;77;21098;-67
2020/12/09 10:54:22;;;;;;;28.12;15.43;;;;;;;-2.02;67.59;100252.27;1818873;77;21203;-68
2020/12/09 10:56:50;;;;;;;15.70;10.28;;;;;;;-2.07;67.77;100246.61;1818482;77;21139;-65
2020/12/09 10:59:18;;;;;;;20.12;11.90;;;;;;;-2.08;67.65;100243.20;1812672;77;21595;-65
2020/12/09 11:01:46;;;;;;;23.02;12.25;;;;;;;-2.07;67.52;100241.11;1808783;79;21206;-66
2020/12/09 11:04:14;;;;;;;26.85;13.22;;;;;;;-2.14;67.54;100235.42;1820409;77;21070;-65
2020/12/09 11:06:44;;;;;;;16.45;11.03;;;;;;;-2.11;67.71;100235.48;1850495;77;21224;-67
2020/12/09 11:09:12;;;;;;;18.45;11.75;;;;;;;-2.07;67.66;100241.52;1851403;77;21167;-65
2020/12/09 11:11:45;;;;;;;18.30;12.03;;;;;;;-2.06;67.49;100239.42;1850970;77;21789;-65
2020/12/09 11:14:10;;;;;;;15.88;9.93;;;;;;;-2.09;67.65;100230.02;1851435;77;21159;-63
2020/12/09 11:16:39;;;;;;;19.90;12.85;;;;;;;-2.04;67.51;100234.80;1851648;77;21174;-66
2020/12/09 11:19:07;;;;;;;18.15;11.30;;;;;;;-2.03;67.53;100235.66;1850773;77;22223;-68
2020/12/09 11:21:37;;;;;;;28.20;18.02;;;;;;;-1.98;67.41;100241.70;1848887;77;21631;-66
2020/12/09 11:24:06;;;;;;;17.10;10.28;;;;;;;-1.96;67.38;100232.39;1849593;77;21098;-65
2020/12/09 11:26:35;;;;;;;31.23;15.13;;;;;;;-1.89;67.30;100240.22;1849050;77;21230;-67
2020/12/09 11:29:06;;;;;;;21.17;11.43;;;;;;;-1.80;67.24;100238.28;1847819;77;21181;-66
2020/12/09 11:31:38;;;;;;;21.35;13.18;;;;;;;-1.67;66.98;100230.45;1819528;77;22324;-66
2020/12/09 11:34:04;;;;;;;14.13;9.53;;;;;;;-1.56;66.60;100224.71;1835286;76;21190;-64